Terminal Aerodrome Forecast
Issued by NWS

Home | Current Version | Previous Version | Text Only | Print | Product List | Glossary On
Versions: 1 2 3 4 5 6 7 8 9 10 11 12 13 14 15 16
000
FTUS46 KMFR 202300
TAFOTH
TAF
KOTH 202339Z 2100/2124 28008KT P6SM SCT150
     FM210400 16004KT P6SM SCT015 BKN150
     FM211100 15005KT 1SM BR OVC002
     FM211600 15005KT 4SM BR SCT002
     FM211700 15005KT P6SM BKN120
     FM212100 25008KT P6SM -RA BKN050 OVC080=

USA.gov is the U.S. government's official web portal to all federal, state and local government web resources and services.